Coachella, California
Current Conditions -  °F | °C
As of 6:52 PM on Thursday 18 Dec 2014 (Local Time) from KTRM Reporting Station
Clear Clear  
Wind Chill: 47°   Ceiling: Unl
Heat Index: 49°   Visibility: 10mi
Dew Point: 42°   Wind: 6mph
Humidity: 77%   Direction: 160°SSE
Pressure: 30.16"   Gusts: NA
Location:  33.68°N, 116.17°W
Report Text: KTRM 190252Z AUTO 16005KT 10SM CLR 09/06 A3016 RMK AO2 SLP213 T00940056 53021 TSNO
Loading
Personal Weather Stations






























Interactive Weather Map New forecast layout! Learn more

10-Day Weather Forecast

Advertisements
Track Severe Weather on mobile